Time;durP1;ratioP1;P1;durP2;ratioP2;P2;SDS_P1;SDS_P2;PMS_P1;PMS_P2;Temp;Humidity;BMP_temperature;BMP_pressure;BME280_temperature;BME280_humidity;BME280_pressure;Samples;Min_cycle;Max_cycle;Signal;HPM_P1;HPM_P2
2023/03/26 00:02:18;;;;;;;2.30;1.43;;;7.70;99.90;;;8.24;100.00;97522.75;4997395;28;20585;-77
2023/03/26 00:04:52;;;;;;;3.67;1.90;;;7.70;99.90;;;8.20;100.00;97520.69;4996837;28;20467;-76
2023/03/26 00:07:22;;;;;;;4.67;1.83;;;7.60;99.90;;;8.16;100.00;97520.25;4996945;28;20542;-76
2023/03/26 00:09:54;;;;;;;4.83;1.77;;;7.60;99.90;;;8.14;100.00;97527.44;4998251;28;20850;-76
2023/03/26 00:12:25;;;;;;;3.87;1.47;;;7.60;99.90;;;8.08;100.00;97515.19;4995291;28;20480;-76
2023/03/26 00:14:55;;;;;;;4.73;1.53;;;7.50;99.90;;;8.04;100.00;97527.75;4997362;28;20462;-76
2023/03/26 00:17:25;;;;;;;6.30;1.63;;;7.50;99.90;;;8.00;100.00;97525.69;4999294;28;20945;-76
2023/03/26 00:19:58;;;;;;;4.13;1.50;;;7.50;99.90;;;8.00;100.00;97523.91;4997559;28;20471;-76
2023/03/26 00:22:28;;;;;;;5.60;1.57;;;7.40;99.90;;;8.00;100.00;97520.47;4996177;28;20495;-76
2023/03/26 00:25:00;;;;;;;3.93;1.67;;;7.30;99.90;;;7.95;100.00;97512.41;4996972;28;20461;-76
2023/03/26 00:27:30;;;;;;;2.20;1.47;;;7.30;99.90;;;7.97;100.00;97515.66;4998371;28;20471;-76
2023/03/26 00:30:00;;;;;;;10.97;1.63;;;7.30;99.90;;;7.97;100.00;97510.44;4998361;28;20477;-76
2023/03/26 00:32:31;;;;;;;3.23;1.50;;;7.30;99.90;;;7.97;100.00;97508.66;4994737;28;21044;-76
2023/03/26 00:35:02;;;;;;;6.07;1.87;;;7.30;99.90;;;7.92;100.00;97504.97;4997541;28;20470;-77
2023/03/26 00:37:33;;;;;;;6.80;2.10;;;7.30;99.90;;;7.89;100.00;97507.94;4997317;28;20464;-76
2023/03/26 00:40:09;;;;;;;4.70;1.33;;;7.30;99.90;;;7.86;100.00;97505.72;4996451;28;20456;-76
2023/03/26 00:42:38;;;;;;;3.13;1.27;;;7.30;99.90;;;7.86;100.00;97513.50;4995506;28;20545;-76
2023/03/26 00:45:10;;;;;;;6.07;1.70;;;7.20;99.90;;;7.81;100.00;97508.06;4996783;28;20491;-77
2023/03/26 00:47:40;;;;;;;8.77;1.87;;;7.30;99.90;;;7.80;100.00;97502.06;4997714;28;21138;-77
2023/03/26 00:50:14;;;;;;;5.40;1.83;;;7.20;99.90;;;7.80;100.00;97504.66;4997886;28;20505;-76
2023/03/26 00:52:45;;;;;;;4.20;1.50;;;7.20;99.90;;;7.80;100.00;97514.25;4995815;28;20478;-76
2023/03/26 00:55:16;;;;;;;12.80;1.83;;;7.20;99.90;;;7.76;100.00;97507.78;4996383;28;20498;-76
2023/03/26 00:57:47;;;;;;;5.60;1.90;;;7.20;99.90;;;7.75;100.00;97511.38;4995252;28;20460;-76
2023/03/26 01:00:30;;;;;;;8.27;2.23;;;7.20;99.90;;;7.75;100.00;97508.78;4995714;28;20488;-77
2023/03/26 01:03:01;;;;;;;4.50;1.80;;;7.10;99.90;;;7.75;100.00;97508.78;4995770;28;20533;-76
2023/03/26 01:05:47;;;;;;;6.20;2.47;;;7.10;99.90;;;7.75;100.00;97506.97;4996363;28;20528;-76
2023/03/26 01:08:32;;;;;;;5.53;1.77;;;7.10;99.90;;;7.75;100.00;97500.97;4994695;28;20515;-76
2023/03/26 01:11:13;;;;;;;8.13;1.67;;;7.10;99.90;;;7.77;100.00;97493.81;4997990;28;20525;-76
2023/03/26 01:13:48;;;;;;;3.17;2.00;;;7.10;99.90;;;7.78;100.00;97490.19;4995700;28;21024;-76
2023/03/26 01:16:29;;;;;;;6.67;1.30;;;7.20;99.90;;;7.76;100.00;97485.19;4996449;28;21408;-76
2023/03/26 01:18:59;;;;;;;5.70;1.63;;;7.20;99.90;;;7.79;100.00;97465.78;4996627;28;20463;-76
2023/03/26 01:21:30;;;;;;;4.33;2.17;;;7.10;99.90;;;7.78;100.00;97464.16;4997719;28;20535;-76
2023/03/26 01:24:04;;;;;;;7.47;1.77;;;7.20;99.90;;;7.73;100.00;97471.72;4996793;28;20542;-76
2023/03/26 01:27:23;;;;;;;5.50;2.10;;;7.20;99.90;;;7.77;100.00;97457.38;4993768;28;21112;-76
2023/03/26 01:29:57;;;;;;;5.23;1.63;;;7.20;99.90;;;7.78;100.00;97456.34;4995067;28;20476;-76
2023/03/26 01:33:12;;;;;;;6.27;2.20;;;7.20;99.90;;;7.80;100.00;97446.59;4996109;28;20478;-76
2023/03/26 01:35:52;;;;;;;3.40;1.60;;;7.30;99.90;;;7.83;100.00;97443.63;4996274;28;20471;-77
2023/03/26 01:38:34;;;;;;;6.73;2.10;;;7.30;99.90;;;7.82;100.00;97439.38;4997576;28;21040;-77
2023/03/26 01:41:13;;;;;;;8.03;1.70;;;7.30;99.90;;;7.82;100.00;97444.59;4997052;28;20538;-76
2023/03/26 01:43:51;;;;;;;3.60;1.50;;;7.30;99.90;;;7.84;100.00;97447.84;4998054;28;20506;-76
2023/03/26 01:46:24;;;;;;;7.43;1.63;;;7.30;99.90;;;7.82;100.00;97442.00;4997889;28;20460;-77
2023/03/26 01:48:54;;;;;;;10.17;1.93;;;7.30;99.90;;;7.84;100.00;97437.44;4997180;28;20951;-77
2023/03/26 01:51:30;;;;;;;7.40;1.80;;;7.30;99.90;;;7.86;100.00;97435.44;4997892;28;20948;-77
2023/03/26 01:54:02;;;;;;;6.73;2.47;;;7.30;99.90;;;7.87;100.00;97431.84;4994790;28;20493;-76
2023/03/26 01:56:47;;;;;;;10.90;1.63;;;7.30;99.90;;;7.89;100.00;97419.44;4997869;28;20672;-77
2023/03/26 02:00:00;;;;;;;7.30;1.70;;;7.40;99.90;;;7.90;100.00;97415.84;4997092;28;21156;-76
2023/03/26 02:02:42;;;;;;;4.33;2.10;;;7.40;99.90;;;7.89;100.00;97416.84;4999409;28;20514;-76
2023/03/26 02:05:20;;;;;;;12.63;2.03;;;7.40;99.90;;;7.91;100.00;97412.28;4999082;28;21002;-76
2023/03/26 02:07:59;;;;;;;8.20;3.13;;;7.40;99.90;;;7.91;100.00;97401.84;5001421;28;20470;-77
2023/03/26 02:10:31;;;;;;;4.77;1.80;;;7.40;99.90;;;7.92;100.00;97403.44;4998491;28;20462;-77
2023/03/26 02:13:04;;;;;;;9.77;1.73;;;7.50;99.90;;;7.91;100.00;97396.66;4998517;28;20558;-76
2023/03/26 02:15:35;;;;;;;4.17;1.77;;;7.40;99.90;;;7.93;100.00;97394.66;4999547;28;20459;-76
2023/03/26 02:18:04;;;;;;;4.40;1.77;;;7.30;99.90;;;7.96;100.00;97402.09;4999336;28;20471;-76
2023/03/26 02:20:34;;;;;;;3.13;1.60;;;7.40;99.90;;;7.98;100.00;97392.31;4998230;28;21316;-76
2023/03/26 02:23:05;;;;;;;5.87;1.70;;;7.40;99.90;;;7.98;100.00;97392.31;4999706;28;20462;-77
2023/03/26 02:25:38;;;;;;;9.03;2.57;;;7.40;99.90;;;7.96;100.00;97383.88;5000029;28;21018;-76
2023/03/26 02:28:11;;;;;;;5.40;1.40;;;7.40;99.90;;;7.99;100.00;97378.28;4999399;28;20465;-78
2023/03/26 02:30:40;;;;;;;5.03;2.03;;;7.40;99.90;;;8.01;100.00;97376.31;4998651;28;20550;-76
2023/03/26 02:33:14;;;;;;;3.93;1.50;;;7.40;99.90;;;8.01;100.00;97371.91;4999709;28;20471;-77
2023/03/26 02:35:44;;;;;;;6.93;2.20;;;7.40;99.90;;;8.01;100.00;97368.50;5000298;28;20541;-76
2023/03/26 02:38:14;;;;;;;10.47;2.57;;;7.40;99.90;;;7.99;100.00;97367.88;4999744;28;20842;-77
2023/03/26 02:40:44;;;;;;;8.83;1.70;;;7.50;99.90;;;7.98;100.00;97358.47;4998715;28;20460;-76
2023/03/26 02:43:16;;;;;;;2.87;1.80;;;7.40;99.90;;;8.00;100.00;97351.28;4999698;28;20463;-76
2023/03/26 02:45:46;;;;;;;9.37;2.10;;;7.40;99.90;;;8.03;100.00;97348.28;5000153;28;20470;-76
2023/03/26 02:48:17;;;;;;;9.83;1.97;;;7.40;99.90;;;7.98;100.00;97341.03;4999175;28;20469;-76
2023/03/26 02:50:48;;;;;;;10.53;2.13;;;7.50;99.90;;;8.00;100.00;97343.47;4999660;28;20496;-76
2023/03/26 02:53:18;;;;;;;10.67;2.13;;;7.40;99.90;;;8.00;100.00;97333.03;4999922;28;21681;-76
2023/03/26 02:55:48;;;;;;;9.53;2.20;;;7.50;99.90;;;8.01;100.00;97327.66;4998043;28;20462;-76
2023/03/26 02:58:19;;;;;;;5.30;1.80;;;7.40;99.90;;;8.00;100.00;97325.25;5001890;28;20504;-77
2023/03/26 03:00:53;;;;;;;4.80;1.43;;;7.50;99.90;;;7.99;100.00;97319.22;4998790;28;20491;-76
2023/03/26 03:03:24;;;;;;;9.30;1.77;;;7.50;99.90;;;7.97;100.00;97310.00;4999881;28;20490;-76
2023/03/26 03:05:55;;;;;;;12.27;2.33;;;7.50;99.90;;;7.96;100.00;97311.78;5001043;28;20552;-78
2023/03/26 03:08:28;;;;;;;10.43;2.93;;;7.50;99.90;;;7.95;100.00;97310.16;4999366;28;20992;-76
2023/03/26 03:10:59;;;;;;;7.63;1.97;;;7.50;99.90;;;7.97;100.00;97312.59;4999092;28;20518;-76
2023/03/26 03:13:30;;;;;;;6.83;1.53;;;7.50;99.90;;;7.96;100.00;97305.78;4999301;28;20460;-76
2023/03/26 03:16:00;;;;;;;6.77;2.00;;;7.40;99.90;;;7.98;100.00;97303.81;5001021;28;20469;-76
2023/03/26 03:18:31;;;;;;;17.60;2.37;;;7.40;99.90;;;7.99;100.00;97295.78;5000170;28;20474;-77
2023/03/26 03:21:01;;;;;;;3.33;1.57;;;7.40;99.90;;;8.00;100.00;97284.41;5003890;28;20471;-76
2023/03/26 03:23:32;;;;;;;4.23;1.67;;;7.40;99.90;;;8.01;100.00;97277.41;5004060;28;20462;-76
2023/03/26 03:26:02;;;;;;;6.67;2.20;;;7.50;99.90;;;8.02;100.00;97264.16;5003419;28;20465;-76
2023/03/26 03:28:33;;;;;;;5.83;1.70;;;7.40;99.90;;;8.03;100.00;97244.97;5002184;28;20468;-76
2023/03/26 03:31:04;;;;;;;11.97;2.20;;;7.50;99.90;;;8.04;100.00;97225.75;5003057;28;20454;-76
2023/03/26 03:33:34;;;;;;;5.77;2.00;;;7.50;99.90;;;8.03;100.00;97223.31;5001358;28;20477;-76
2023/03/26 03:36:09;;;;;;;14.53;1.90;;;7.50;99.90;;;8.01;100.00;97226.13;5002369;28;20463;-76
2023/03/26 03:38:50;;;;;;;6.23;2.03;;;7.50;99.90;;;7.98;100.00;97231.69;5003413;28;20846;-76
2023/03/26 03:41:19;;;;;;;14.07;2.67;;;7.50;99.90;;;7.98;100.00;97233.53;5000989;28;20464;-76
2023/03/26 03:43:52;;;;;;;10.00;1.97;;;7.50;99.90;;;7.99;100.00;97222.09;4997245;28;21094;-76
2023/03/26 03:46:22;;;;;;;12.30;2.37;;;7.50;99.90;;;8.01;100.00;97223.53;4998646;28;20505;-76
2023/03/26 03:48:50;;;;;;;7.97;2.20;;;7.50;99.90;;;8.03;100.00;97218.94;4997823;28;20464;-77
2023/03/26 03:51:20;;;;;;;10.87;2.03;;;7.50;99.90;;;8.04;100.00;97204.13;4998296;28;20993;-76
2023/03/26 03:53:50;;;;;;;4.33;1.70;;;7.50;99.90;;;8.06;100.00;97199.50;4998806;28;20476;-77
2023/03/26 03:56:22;;;;;;;3.73;1.67;;;7.50;99.90;;;8.07;100.00;97203.72;4998545;28;20466;-76
2023/03/26 03:58:54;;;;;;;9.47;2.10;;;7.50;99.90;;;8.05;100.00;97201.31;4996543;28;20513;-77
2023/03/26 04:01:24;;;;;;;4.90;1.63;;;7.50;99.90;;;8.05;100.00;97192.72;4997862;28;20470;-77
2023/03/26 04:03:54;;;;;;;5.00;1.80;;;7.50;99.90;;;8.03;100.00;97187.69;4996772;28;20470;-76
2023/03/26 04:06:25;;;;;;;17.47;1.83;;;7.50;99.90;;;8.04;100.00;97178.06;4996165;28;21081;-77
2023/03/26 04:08:55;;;;;;;3.63;1.80;;;7.50;99.90;;;8.02;100.00;97170.44;4996839;28;20533;-76
2023/03/26 04:11:25;;;;;;;19.03;2.90;;;7.50;99.90;;;8.02;100.00;97172.25;4995037;28;20482;-76
2023/03/26 04:13:56;;;;;;;14.90;2.93;;;7.50;99.90;;;8.01;100.00;97168.06;4997974;28;20522;-77
2023/03/26 04:16:26;;;;;;;4.03;1.90;;;7.50;99.90;;;8.02;100.00;97167.03;4998730;28;20598;-76
2023/03/26 04:18:57;;;;;;;8.43;1.50;;;7.40;99.90;;;8.02;100.00;97164.44;4998468;28;20525;-76
2023/03/26 04:21:29;;;;;;;5.10;1.80;;;7.50;99.90;;;8.02;100.00;97164.44;4994254;28;20467;-78
2023/03/26 04:24:00;;;;;;;9.30;1.90;;;7.50;99.90;;;8.01;100.00;97157.63;4994847;28;20466;-75
2023/03/26 04:26:30;;;;;;;12.00;2.23;;;7.50;99.90;;;7.99;100.00;97149.19;4995233;28;20463;-78
2023/03/26 04:29:05;;;;;;;9.07;1.80;;;7.50;99.90;;;7.98;100.00;97151.00;4996246;28;20546;-77
2023/03/26 04:31:37;;;;;;;5.63;1.70;;;7.50;99.90;;;7.98;100.00;97145.00;4996972;28;20502;-78
2023/03/26 04:34:17;;;;;;;10.67;2.40;;;7.40;99.90;;;8.00;100.00;97137.81;4998057;28;21170;-78
2023/03/26 04:36:47;;;;;;;28.57;12.70;;;7.40;99.90;;;7.97;100.00;97141.59;4997354;28;20471;-77
2023/03/26 04:39:20;;;;;;;7.13;2.50;;;7.40;99.90;;;7.95;100.00;97134.97;4996749;28;20459;-78
2023/03/26 04:41:50;;;;;;;6.10;1.97;;;7.40;99.90;;;7.95;100.00;97127.16;4994016;28;20478;-78
2023/03/26 04:44:22;;;;;;;5.47;1.63;;;7.40;99.90;;;7.94;100.00;97115.16;4994833;28;20487;-77
2023/03/26 04:46:54;;;;;;;6.67;1.77;;;7.40;99.90;;;7.95;100.00;97111.53;4995099;28;20481;-78
2023/03/26 04:49:25;;;;;;;6.27;1.80;;;7.40;99.90;;;7.95;100.00;97109.75;4993156;28;20470;-78
2023/03/26 04:51:55;;;;;;;8.83;2.30;;;7.40;99.90;;;7.93;100.00;97111.75;4995523;28;20582;-78
2023/03/26 04:54:25;;;;;;;11.23;2.17;;;7.40;99.90;;;7.91;100.00;97121.53;4999225;28;20463;-77
2023/03/26 04:57:01;;;;;;;8.10;1.90;;;7.40;99.90;;;7.95;100.00;97116.75;5000465;28;20462;-78
2023/03/26 04:59:36;;;;;;;5.23;1.83;;;7.40;99.90;;;7.96;100.00;97113.97;5009810;28;20578;-78
2023/03/26 05:02:08;;;;;;;7.13;2.00;;;7.40;99.90;;;7.95;100.00;97112.34;4999144;28;20550;-78
2023/03/26 05:04:39;;;;;;;4.20;1.93;;;7.40;99.90;;;7.97;100.00;97096.53;4997724;28;20456;-78
2023/03/26 05:07:11;;;;;;;5.80;1.73;;;7.40;99.90;;;7.99;100.00;97092.75;4995274;28;20950;-78
2023/03/26 05:09:41;;;;;;;12.70;3.10;;;7.40;99.90;;;8.00;100.00;97081.34;4997198;28;20455;-78
2023/03/26 05:12:10;;;;;;;12.73;2.30;;;7.50;99.90;;;8.00;100.00;97083.13;4996798;28;20472;-78
2023/03/26 05:14:42;;;;;;;3.53;2.20;;;7.40;99.90;;;7.97;100.00;97081.72;4997760;28;20506;-78
2023/03/26 05:17:17;;;;;;;10.73;2.60;;;7.40;99.90;;;7.95;100.00;97073.31;4997623;28;20469;-78
2023/03/26 05:19:48;;;;;;;10.30;2.23;;;7.40;99.90;;;7.95;100.00;97077.69;4997476;28;20965;-78
2023/03/26 05:22:17;;;;;;;5.27;2.40;;;7.40;99.90;;;7.95;100.00;97073.31;4994774;28;20472;-78
2023/03/26 05:24:47;;;;;;;25.30;9.70;;;7.40;99.90;;;7.93;100.00;97061.47;4995198;28;20962;-78
2023/03/26 05:27:18;;;;;;;7.73;2.90;;;7.50;99.90;;;7.90;100.00;97064.47;4996953;28;20515;-78
2023/03/26 05:29:50;;;;;;;9.33;2.30;;;7.40;99.90;;;7.91;100.00;97053.09;4997295;28;20462;-78
2023/03/26 05:32:20;;;;;;;10.43;2.13;;;7.50;99.90;;;7.93;100.00;97045.88;4995662;28;20576;-75
2023/03/26 05:34:50;;;;;;;8.90;2.60;;;7.40;99.90;;;7.92;100.00;97036.44;5001051;28;20482;-78
2023/03/26 05:37:23;;;;;;;7.10;3.70;;;7.40;99.90;;;7.91;100.00;97038.25;5001611;28;20474;-78
2023/03/26 05:39:54;;;;;;;6.57;1.60;;;7.40;99.90;;;7.90;100.00;97038.44;5001350;28;20459;-78
2023/03/26 05:42:25;;;;;;;7.33;2.20;;;7.40;99.90;;;7.89;100.00;97023.81;4997654;28;20471;-77
2023/03/26 05:44:57;;;;;;;5.17;2.50;;;7.40;99.90;;;7.90;100.00;97023.63;4999568;28;20538;-78
2023/03/26 05:47:27;;;;;;;13.40;2.10;;;7.40;99.90;;;7.90;100.00;97020.22;4998692;28;20518;-77
2023/03/26 05:49:58;;;;;;;7.70;2.40;;;7.40;99.90;;;7.92;100.00;97016.44;5028880;28;20462;-78
2023/03/26 05:52:28;;;;;;;15.97;2.80;;;7.40;99.90;;;7.90;100.00;97010.63;4999798;28;20832;-78
2023/03/26 05:54:59;;;;;;;4.00;1.83;;;7.40;99.90;;;7.91;100.00;97014.81;4999273;28;20499;-78
2023/03/26 05:57:32;;;;;;;16.03;2.47;;;7.40;99.90;;;7.92;100.00;96997.41;4998439;28;20467;-74
2023/03/26 06:00:04;;;;;;;12.63;4.40;;;7.40;99.90;;;7.90;100.00;96996.81;4999576;28;20540;-78
2023/03/26 06:02:35;;;;;;;7.50;1.93;;;7.40;99.90;;;7.89;100.00;96993.41;4998883;28;20458;-78
2023/03/26 06:05:06;;;;;;;3.23;1.43;;;7.40;99.90;;;7.87;100.00;96992.81;5000388;28;20459;-80
2023/03/26 06:07:38;;;;;;;10.20;2.00;;;7.40;99.90;;;7.88;100.00;96983.19;4996583;28;20553;-78
2023/03/26 06:10:11;;;;;;;4.40;1.70;;;7.40;99.90;;;7.88;100.00;96981.38;5000236;28;20469;-78
2023/03/26 06:12:48;;;;;;;5.83;2.10;;;7.40;99.90;;;7.89;100.00;96972.59;4997899;28;20561;-75
2023/03/26 06:15:20;;;;;;;5.83;2.40;;;7.40;99.90;;;7.90;100.00;96973.38;4998855;28;20504;-78
2023/03/26 06:17:51;;;;;;;7.47;2.83;;;7.40;99.90;;;7.91;100.00;96970.56;4998257;28;20474;-77
2023/03/26 06:20:22;;;;;;;8.90;2.20;;;7.40;99.90;;;7.91;100.00;96967.97;5000250;28;20477;-78
2023/03/26 06:22:52;;;;;;;8.70;2.00;;;7.40;99.90;;;7.93;100.00;96947.75;4997836;28;20471;-77
2023/03/26 06:25:22;;;;;;;5.87;1.87;;;7.30;99.90;;;7.94;100.00;96943.38;4998411;28;20464;-77
2023/03/26 06:27:52;;;;;;;3.33;1.80;;;7.40;99.90;;;7.93;100.00;96931.34;5002959;28;21057;-78
2023/03/26 06:30:23;;;;;;;4.83;2.20;;;7.40;99.90;;;7.95;100.00;96929.34;5031922;28;20830;-78
2023/03/26 06:32:52;;;;;;;8.13;3.70;;;7.40;99.90;;;7.97;100.00;96928.16;4999061;28;20522;-78
2023/03/26 06:35:23;;;;;;;6.07;2.87;;;7.40;99.90;;;7.99;100.00;96928.75;4999134;28;20474;-78
2023/03/26 06:37:52;;;;;;;6.90;2.40;;;7.40;99.90;;;8.01;100.00;96920.75;4998254;28;20463;-78
2023/03/26 06:40:23;;;;;;;7.63;2.47;;;7.40;99.90;;;7.99;100.00;96917.53;5001057;28;20466;-78
2023/03/26 06:42:54;;;;;;;7.80;1.97;;;7.50;99.90;;;8.00;100.00;96911.34;4997885;28;20477;-78
2023/03/26 06:45:39;;;;;;;4.70;1.77;;;7.50;99.90;;;8.02;100.00;96906.72;4999288;28;20486;-78
2023/03/26 06:48:09;;;;;;;3.83;1.40;;;7.40;99.90;;;8.02;100.00;96911.94;4998021;28;20471;-78
2023/03/26 06:50:39;;;;;;;9.53;1.63;;;7.40;99.90;;;8.04;100.00;96912.53;4997981;28;20546;-78
2023/03/26 06:53:08;;;;;;;7.87;2.07;;;7.40;99.90;;;8.03;100.00;96911.75;4997838;28;20466;-78
2023/03/26 06:55:39;;;;;;;4.80;1.30;;;7.50;99.90;;;8.04;100.00;96902.94;4996239;28;21135;-78
2023/03/26 06:58:11;;;;;;;48.60;20.20;;;7.40;99.90;;;8.01;100.00;96886.91;4998266;28;20463;-78
2023/03/26 07:00:43;;;;;;;5.80;2.00;;;7.40;99.90;;;8.02;100.00;96885.91;4996727;28;20475;-78
2023/03/26 07:03:12;;;;;;;10.40;1.67;;;7.50;99.90;;;8.03;100.00;96882.31;4997226;28;20843;-78
2023/03/26 07:05:41;;;;;;;7.47;1.50;;;7.50;99.90;;;8.02;100.00;96872.88;4995044;28;21081;-78
2023/03/26 07:08:11;;;;;;;7.53;1.70;;;7.40;99.90;;;8.04;100.00;96871.69;4995174;28;20495;-77
2023/03/26 07:10:41;;;;;;;2.27;1.10;;;7.50;99.90;;;8.03;100.00;96875.28;4999343;28;20467;-78
2023/03/26 07:13:11;;;;;;;4.23;1.20;;;7.50;99.90;;;7.97;100.00;96870.09;4997199;28;20534;-77
2023/03/26 07:15:43;;;;;;;3.20;1.10;;;7.40;99.90;;;7.97;100.00;96864.88;4998310;28;20498;-78
2023/03/26 07:18:13;;;;;;;2.53;1.30;;;7.50;99.90;;;7.99;100.00;96866.28;4997968;28;20819;-78
2023/03/26 07:20:45;;;;;;;3.83;1.30;;;7.50;99.90;;;7.97;100.00;96864.88;4996871;28;20468;-77
2023/03/26 07:23:18;;;;;;;2.63;1.23;;;7.40;99.90;;;7.98;100.00;96856.84;4998612;28;21099;-77
2023/03/26 07:25:51;;;;;;;1.17;1.07;;;7.40;99.90;;;8.01;100.00;96855.69;4997777;28;20451;-78
2023/03/26 07:28:30;;;;;;;2.03;1.20;;;7.40;99.90;;;8.00;100.00;96852.28;4997261;28;20490;-77
2023/03/26 07:31:17;;;;;;;2.47;1.10;;;7.40;99.90;;;8.01;100.00;96840.88;4997485;28;20473;-78
2023/03/26 07:34:02;;;;;;;4.80;1.20;;;7.50;99.90;;;8.05;100.00;96836.06;4995699;28;20479;-77
2023/03/26 07:36:42;;;;;;;3.20;1.30;;;7.50;99.90;;;8.05;100.00;96825.66;4998028;28;20561;-77
2023/03/26 07:39:33;;;;;;;7.10;1.30;;;7.50;99.90;;;8.07;100.00;96821.03;4996516;28;20483;-78
2023/03/26 07:42:16;;;;;;;2.40;1.20;;;7.50;99.90;;;8.07;100.00;96819.22;4997507;28;21048;-78
2023/03/26 07:44:57;;;;;;;1.30;1.17;;;7.50;99.90;;;8.06;100.00;96811.59;4994504;28;20482;-79
2023/03/26 07:47:35;;;;;;;3.37;1.10;;;7.50;99.90;;;8.07;100.00;96800.19;4997652;28;21045;-77
2023/03/26 07:50:07;;;;;;;1.80;1.10;;;7.60;99.90;;;8.05;100.00;96795.19;4997713;28;20459;-77
2023/03/26 07:52:38;;;;;;;3.03;1.30;;;7.50;99.90;;;8.07;100.00;96798.41;4997269;28;20477;-77
2023/03/26 07:55:14;;;;;;;4.77;1.33;;;7.60;99.90;;;8.07;100.00;96798.41;4998332;28;20476;-77
2023/03/26 07:58:04;;;;;;;3.30;1.57;;;7.50;99.90;;;8.08;100.00;96788.78;4995862;28;20537;-77
2023/03/26 08:00:42;;;;;;;1.47;0.90;;;7.60;99.90;;;8.08;100.00;96780.97;4996380;28;20519;-77
2023/03/26 08:03:37;;;;;;;2.10;1.40;;;7.60;99.90;;;8.06;100.00;96770.75;4996481;28;20460;-77
2023/03/26 08:06:21;;;;;;;2.83;1.20;;;7.60;99.90;;;8.08;100.00;96758.38;4997550;28;20480;-77
2023/03/26 08:09:02;;;;;;;4.93;1.90;;;7.60;99.90;;;8.10;100.00;96765.94;4996947;28;20471;-77
2023/03/26 08:11:45;;;;;;;4.63;1.30;;;7.50;99.90;;;8.13;100.00;96764.75;4996343;28;20538;-78
2023/03/26 08:14:32;;;;;;;2.67;1.40;;;7.60;99.90;;;8.14;100.00;96761.94;4997791;28;20455;-77
2023/03/26 08:17:12;;;;;;;3.23;1.20;;;7.60;99.90;;;8.16;100.00;96759.16;4995966;28;20456;-77
2023/03/26 08:20:04;;;;;;;1.90;1.00;;;7.60;99.90;;;8.17;100.00;96760.72;4997710;28;20458;-77
2023/03/26 08:22:39;;;;;;;4.40;1.30;;;7.60;99.90;;;8.18;100.00;96765.75;4995448;28;20464;-77
2023/03/26 08:25:28;;;;;;;4.83;1.70;;;7.70;99.90;;;8.20;100.00;96760.31;4998031;28;20517;-77
2023/03/26 08:28:17;;;;;;;2.97;1.40;;;7.70;99.90;;;8.19;100.00;96771.75;4998677;28;20501;-77
2023/03/26 08:30:47;;;;;;;2.60;1.17;;;7.80;99.90;;;8.22;100.00;96763.53;4996319;28;20491;-77
2023/03/26 08:33:21;;;;;;;3.73;1.20;;;7.70;99.90;;;8.31;100.00;96757.13;4995411;28;20475;-77
2023/03/26 08:35:53;;;;;;;2.27;1.13;;;7.80;99.90;;;8.34;100.00;96756.72;4996896;28;21020;-77
2023/03/26 08:38:23;;;;;;;2.33;1.20;;;7.80;99.90;;;8.41;100.00;96758.31;4997852;28;20953;-77
2023/03/26 08:41:42;;;;;;;4.30;1.30;;;7.80;99.90;;;8.44;100.00;96747.47;4998144;28;20463;-76
2023/03/26 08:45:12;;;;;;;4.37;1.60;;;8.00;99.90;;;8.48;100.00;96748.66;4967005;28;20480;-77
2023/03/26 08:48:38;;;;;;;1.47;1.00;;;8.00;99.90;;;8.40;100.00;96748.88;4990584;28;20494;-77
2023/03/26 08:51:59;;;;;;;8.80;1.47;;;7.90;99.90;;;8.43;100.00;96738.06;4997535;28;20455;-78
2023/03/26 08:55:10;;;;;;;2.57;1.70;;;7.90;99.90;;;8.44;100.00;96737.03;4978812;28;20467;-77
2023/03/26 08:58:43;;;;;;;1.90;1.13;;;8.00;99.90;;;8.47;100.00;96726.22;4996216;28;21025;-77
2023/03/26 09:02:02;;;;;;;2.60;1.50;;;8.00;99.90;;;8.53;100.00;96712.38;4981251;28;20466;-77
2023/03/26 09:05:30;;;;;;;1.30;1.20;;;8.00;99.90;;;8.62;100.00;96723.34;4994563;28;20542;-77
2023/03/26 09:08:41;;;;;;;3.93;1.60;;;8.00;99.90;;;8.67;100.00;96720.94;4997850;28;21046;-77
2023/03/26 09:12:05;;;;;;;3.77;1.40;;;8.10;99.90;;;8.69;100.00;96712.91;4998860;28;20460;-77
2023/03/26 09:15:21;;;;;;;3.23;1.57;;;8.20;99.90;;;8.70;100.00;96715.31;4995037;28;20986;-78
2023/03/26 09:18:44;;;;;;;7.47;1.47;;;8.20;99.90;;;8.72;100.00;96707.25;4996817;28;20960;-77
2023/03/26 09:22:00;;;;;;;7.83;1.17;;;8.30;99.90;;;8.78;100.00;96706.47;4996104;28;20464;-77
2023/03/26 09:25:41;;;;;;;4.97;1.87;;;8.30;99.90;;;8.87;100.00;96710.41;4996532;28;20471;-77
2023/03/26 09:29:15;;;;;;;2.20;1.30;;;8.40;99.90;;;8.99;100.00;96704.31;4997457;28;20509;-78
2023/03/26 09:32:36;;;;;;;6.50;1.43;;;8.50;99.90;;;9.03;100.00;96697.66;4898249;28;20478;-78
2023/03/26 09:35:41;;;;;;;5.13;1.33;;;8.60;99.90;;;9.04;100.00;96721.94;4995362;28;20468;-78
2023/03/26 09:38:34;;;;;;;2.63;1.30;;;8.60;99.90;;;9.06;100.00;96722.50;4993538;28;20849;-78
2023/03/26 09:41:16;;;;;;;2.80;1.60;;;8.60;99.90;;;9.08;100.00;96712.69;4996215;28;20530;-77
2023/03/26 09:44:43;;;;;;;2.03;1.30;;;8.70;99.90;;;9.04;100.00;96706.28;4994748;28;20490;-77
2023/03/26 09:48:07;;;;;;;2.40;1.20;;;8.60;99.90;;;9.04;100.00;96719.34;4950437;28;20523;-77
2023/03/26 09:50:58;;;;;;;3.60;1.10;;;8.60;99.90;;;9.07;100.00;96711.09;4994560;28;20476;-78
2023/03/26 09:53:57;;;;;;;1.77;1.20;;;8.70;99.90;;;9.16;100.00;96707.22;4994056;28;20524;-77
2023/03/26 09:56:46;;;;;;;2.83;0.97;;;8.70;99.90;;;9.23;100.00;96694.16;4992693;28;20498;-78
2023/03/26 09:59:48;;;;;;;3.00;1.40;;;8.70;99.90;;;9.32;100.00;96709.31;4993844;28;20479;-78
2023/03/26 10:03:14;;;;;;;1.10;1.00;;;8.80;99.90;;;9.41;100.00;96702.00;4995783;28;20960;-78
2023/03/26 10:06:10;;;;;;;3.00;1.13;;;8.90;99.90;;;9.50;100.00;96706.78;4988006;28;20467;-78
2023/03/26 10:09:19;;;;;;;1.93;0.90;;;9.00;99.90;;;9.61;100.00;96698.22;4999608;28;20495;-78
2023/03/26 10:12:31;;;;;;;5.57;1.23;;;9.00;99.90;;;9.75;100.00;96693.72;4995194;28;20518;-77
2023/03/26 10:15:19;;;;;;;3.50;1.10;;;9.20;99.90;;;9.84;100.00;96702.06;4987082;28;20479;-77
2023/03/26 10:18:09;;;;;;;2.50;1.07;;;9.40;99.90;;;9.92;100.00;96693.94;4998472;28;20542;-77
2023/03/26 10:21:06;;;;;;;1.13;0.90;;;9.50;99.90;;;9.97;100.00;96707.16;4999330;28;20957;-77
2023/03/26 10:24:13;;;;;;;1.23;0.90;;;9.50;99.90;;;10.06;100.00;96703.25;4999703;28;20463;-77
2023/03/26 10:27:28;;;;;;;3.63;1.07;;;9.60;99.90;;;10.10;100.00;96713.03;5002630;28;20517;-78
2023/03/26 10:30:40;;;;;;;2.07;1.43;;;9.60;99.90;;;10.09;100.00;96710.66;4998715;28;20467;-75
2023/03/26 10:33:25;;;;;;;1.97;0.90;;;9.70;99.90;;;10.15;100.00;96709.81;5000336;28;20477;-78
2023/03/26 10:36:15;;;;;;;4.33;1.43;;;9.70;99.90;;;10.11;100.00;96706.81;4999046;28;20459;-78
2023/03/26 10:39:20;;;;;;;2.50;1.50;;;9.60;99.90;;;10.16;100.00;96698.34;5000208;28;20473;-77
2023/03/26 10:42:39;;;;;;;4.57;1.40;;;9.70;99.90;;;10.23;100.00;96706.91;4998397;28;20470;-77
2023/03/26 10:45:36;;;;;;;2.50;1.00;;;9.80;99.90;;;10.13;100.00;96707.38;4999672;28;20916;-77
2023/03/26 10:48:31;;;;;;;1.10;1.00;;;9.70;99.90;;;10.13;100.00;96704.00;4999721;28;20490;-77
2023/03/26 10:51:35;;;;;;;2.80;1.00;;;9.70;99.90;;;10.16;100.00;96708.00;4998367;28;20548;-77
2023/03/26 10:54:18;;;;;;;1.77;1.00;;;9.70;99.90;;;10.22;100.00;96707.94;4997341;28;20465;-77
2023/03/26 10:56:51;;;;;;;1.53;0.80;;;9.70;99.90;;;10.20;100.00;96720.41;4999246;28;20466;-78
2023/03/26 10:59:22;;;;;;;5.93;1.10;;;9.70;99.90;;;10.22;100.00;96704.50;4998675;28;20470;-77
2023/03/26 11:02:20;;;;;;;3.77;1.10;;;9.80;99.90;;;10.22;100.00;96707.13;4997609;28;20529;-78
2023/03/26 11:05:27;;;;;;;3.23;1.33;;;9.80;99.90;;;10.26;100.00;96711.72;4997323;28;20467;-78
2023/03/26 11:08:06;;;;;;;2.97;1.10;;;9.80;99.90;;;10.32;100.00;96718.66;4996801;28;20870;-77
2023/03/26 11:10:53;;;;;;;1.27;0.80;;;9.90;99.90;;;10.32;100.00;96718.66;4997136;28;20557;-77
2023/03/26 11:13:42;;;;;;;3.23;1.00;;;9.90;99.90;;;10.35;100.00;96715.63;4996578;28;20514;-78
2023/03/26 11:16:21;;;;;;;4.10;0.90;;;9.90;99.90;;;10.36;100.00;96727.66;4997861;28;20464;-78
2023/03/26 11:19:00;;;;;;;3.83;1.30;;;9.90;99.90;;;10.39;100.00;96726.44;4999495;28;20887;-77
2023/03/26 11:21:44;;;;;;;4.73;1.47;;;10.00;99.90;;;10.37;100.00;96734.50;4998842;28;20471;-78